Terminal Aerodrome Forecast
Issued by NWS Jackson, KY

Home | Current Version | Previous Version | Text Only | Print | Product List | Glossary On
Versions: 1 2 3 4 5 6 7 8 9 10 11 12 13 14 15 16 17 18 19 20 21 22 23
000
FTUS43 KJKL 170900 AAA
TAFJKL
TAF AMD
KJKL 170927Z 1709/1806 28006KT 2SM -DZ BR OVC002
     FM171200 27004KT 6SM -DZ OVC020
     FM172000 27005KT P6SM BKN030
     FM172300 VRB03KT P6SM SCT030 BKN100=

USA.gov is the U.S. government's official web portal to all federal, state and local government web resources and services.